DFFD

Ouagadougou Airport

Ouagadougou, Burkina Faso
TAF DFFD 181100Z 1812/1918 24010KT 9999 FEW026 TEMPO 1814/1824 4000 TSRA SCT026 FEW036CB
Issued Valid From Valid To
Jun-18 @ 11:00 UTC
(2 hours ago)
Jun-18 @ 12:00 UTC
(an hour ago)
Jun-19 @ 18:00 UTC
(-1 days ago)
Jun-18 @ 12:00 to Jun-19 @ 18:00
TAF DFFD 181100Z 1812/1918 24010KT 9999 FEW026
Wind Visibility Clouds
240° at 10 knots 10,000+ meters
  • Few at 2,600' AGL
Temporary Jun-18 @ 14:00 to Jun-19 @ 00:00
TEMPO 1814/1824 4000 TSRA SCT026 FEW036CB
Visibility Clouds Conditions
4,007 meters
  • Scattered at 2,600' AGL
  • Few at 3,600' AGL
  • Thunderstorm
  • Rain
TAF DFFD 181100Z 1812/1918 24010KT 9999 FEW026 TEMPO 1814/1824 4000 TSRA SCT026 FEW036CB
Issued Jun-18 @ 11:00 UTC
(2 hours ago)
Valid From Jun-18 @ 12:00 UTC
(an hour ago)
Valid To Jun-19 @ 18:00 UTC
(-1 days ago)
Jun-18 @ 12:00 - Jun-19 @ 18:00
Wind Visibility
240° at 10 knots 10,000+ meters
Clouds
  • Few at 2,600' AGL
Temporary Jun-18 @ 14:00 - Jun-19 @ 00:00
Clouds
  • Scattered at 2,600' AGL
  • Few at 3,600' AGL
Conditions
  • Thunderstorm
  • Rain